createdAt,value
2024-02-29T00:00:57.790Z,21.3
2024-02-29T00:02:00.235Z,21.3
2024-02-29T00:03:02.242Z,21.3
2024-02-29T00:04:04.446Z,21.3
2024-02-29T00:05:06.784Z,21.3
2024-02-29T00:06:08.659Z,21.3
2024-02-29T00:07:10.671Z,21.3
2024-02-29T00:08:12.713Z,21.3
2024-02-29T00:09:14.508Z,21.3
2024-02-29T00:10:16.313Z,21.3
2024-02-29T00:11:18.506Z,21.3
2024-02-29T00:12:20.644Z,21.3
2024-02-29T00:13:22.434Z,21.3
2024-02-29T00:14:24.259Z,21.3
2024-02-29T00:15:26.094Z,21.3
2024-02-29T00:16:28.059Z,21.2
2024-02-29T00:17:29.924Z,21.2
2024-02-29T00:18:31.802Z,21.3
2024-02-29T00:19:33.773Z,21.3
2024-02-29T00:20:35.638Z,21.3
2024-02-29T00:21:41.853Z,21.3
2024-02-29T00:22:44.098Z,21.3
2024-02-29T00:23:45.887Z,21.3
2024-02-29T00:24:47.690Z,21.3
2024-02-29T00:25:49.566Z,21.3
2024-02-29T00:26:51.299Z,21.3
2024-02-29T00:27:53.147Z,21.3
2024-02-29T00:28:55.146Z,21.3
2024-02-29T00:29:56.960Z,21.3
2024-02-29T00:30:58.963Z,21.3
2024-02-29T00:32:00.933Z,21.3
2024-02-29T00:33:02.765Z,21.3
2024-02-29T00:34:05.000Z,21.3
2024-02-29T00:35:07.112Z,21.2
2024-02-29T00:36:10.810Z,21.3
2024-02-29T00:37:13.025Z,21.2
2024-02-29T00:38:14.988Z,21.2
2024-02-29T00:39:16.736Z,21.2
2024-02-29T00:40:18.709Z,21.2
2024-02-29T00:41:20.948Z,21.2
2024-02-29T00:42:22.742Z,21.2
2024-02-29T00:43:24.547Z,21.2
2024-02-29T00:44:26.407Z,21.2
2024-02-29T00:45:28.503Z,21.2
2024-02-29T00:46:30.686Z,21.2
2024-02-29T00:47:32.514Z,21.2
2024-02-29T00:48:34.783Z,21.2
2024-02-29T00:49:36.807Z,21.2
2024-02-29T00:50:38.615Z,21.2
2024-02-29T00:51:40.611Z,21.2
2024-02-29T00:52:42.596Z,21.2
2024-02-29T00:53:44.357Z,21.2
2024-02-29T00:54:46.187Z,21.2
2024-02-29T00:55:48.027Z,21.2
2024-02-29T00:56:49.843Z,21.2
2024-02-29T00:57:51.689Z,21.2
2024-02-29T00:58:56.551Z,21.2
2024-02-29T00:59:58.442Z,21.2
2024-02-29T01:01:00.353Z,21.2
2024-02-29T01:02:02.712Z,21.2
2024-02-29T01:03:04.997Z,21.2
2024-02-29T01:04:06.888Z,21.2
2024-02-29T01:05:09.070Z,21.2
2024-02-29T01:06:10.952Z,21.2
2024-02-29T01:07:13.214Z,21.2
2024-02-29T01:08:15.389Z,21.2
2024-02-29T01:09:17.152Z,21.2
2024-02-29T01:10:19.215Z,21.2
2024-02-29T01:11:22.021Z,21.2
2024-02-29T01:12:23.916Z,21.2
2024-02-29T01:13:25.740Z,21.2
2024-02-29T01:14:27.496Z,21.2
2024-02-29T01:15:29.405Z,21.3
2024-02-29T01:16:31.635Z,21.3
2024-02-29T01:17:33.518Z,21.3
2024-02-29T01:18:35.844Z,21.3
2024-02-29T01:19:37.669Z,21.3
2024-02-29T01:20:39.486Z,21.3
2024-02-29T01:21:41.409Z,21.2
2024-02-29T01:22:43.372Z,21.3
2024-02-29T01:23:45.135Z,21.3
2024-02-29T01:24:47.043Z,21.3
2024-02-29T01:25:49.005Z,21.2
2024-02-29T01:26:50.795Z,21.2
2024-02-29T01:27:52.789Z,21.2
2024-02-29T01:28:54.754Z,21.2
2024-02-29T01:29:56.802Z,21.2
2024-02-29T01:30:58.792Z,21.2
2024-02-29T01:32:12.279Z,21.2
2024-02-29T01:33:32.042Z,21.2
2024-02-29T01:34:34.183Z,21.2
2024-02-29T01:35:36.039Z,21.2
2024-02-29T01:36:37.852Z,21.2
2024-02-29T01:37:39.837Z,21.2
2024-02-29T01:38:41.681Z,21.2
2024-02-29T01:39:43.563Z,21.2
2024-02-29T01:40:45.352Z,21.2
2024-02-29T01:41:47.182Z,21.1
2024-02-29T01:42:49.028Z,21.1
2024-02-29T01:43:51.098Z,21.2
2024-02-29T01:44:52.856Z,21.2
2024-02-29T01:45:54.820Z,21.2
2024-02-29T01:46:56.814Z,21.3
2024-02-29T01:47:58.635Z,21.3
2024-02-29T01:49:00.654Z,21.3
2024-02-29T01:50:02.596Z,21.2
2024-02-29T01:51:04.430Z,21.3
2024-02-29T01:52:06.474Z,21.3
2024-02-29T01:53:08.680Z,21.3
2024-02-29T01:54:10.508Z,21.3
2024-02-29T01:55:12.633Z,21.3
2024-02-29T01:56:14.944Z,21.3
2024-02-29T01:57:16.653Z,21.3
2024-02-29T01:58:18.661Z,21.3
2024-02-29T01:59:20.579Z,21.3
2024-02-29T02:00:22.426Z,21.3
2024-02-29T02:01:24.304Z,21.3
2024-02-29T02:02:26.535Z,21.2
2024-02-29T02:03:28.394Z,21.2
2024-02-29T02:04:30.196Z,21.2
2024-02-29T02:05:31.974Z,21.3
2024-02-29T02:06:33.957Z,21.2
2024-02-29T02:07:35.816Z,21.3
2024-02-29T02:08:37.919Z,21.3
2024-02-29T02:09:40.104Z,21.3
2024-02-29T02:10:42.169Z,21.3
2024-02-29T02:11:44.198Z,21.3
2024-02-29T02:12:46.069Z,21.2
2024-02-29T02:13:47.998Z,21.3
2024-02-29T02:14:49.786Z,21.3
2024-02-29T02:15:51.781Z,21.3
2024-02-29T02:16:53.937Z,21.3
2024-02-29T02:17:55.827Z,21.3
2024-02-29T02:18:57.809Z,21.3
2024-02-29T02:19:59.827Z,21.3
2024-02-29T02:21:01.735Z,21.3
2024-02-29T02:22:03.765Z,21.3
2024-02-29T02:23:05.852Z,21.3
2024-02-29T02:24:07.689Z,21.3
2024-02-29T02:25:10.036Z,21.3
2024-02-29T02:26:12.426Z,21.3
2024-02-29T02:27:14.196Z,21.3
2024-02-29T02:28:16.166Z,21.3
2024-02-29T02:29:18.014Z,21.3
2024-02-29T02:30:19.744Z,21.3
2024-02-29T02:31:21.488Z,21.3
2024-02-29T02:32:23.238Z,21.3
2024-02-29T02:33:25.035Z,21.3
2024-02-29T02:34:27.119Z,21.3
2024-02-29T02:35:28.861Z,21.3
2024-02-29T02:36:30.689Z,21.3
2024-02-29T02:37:32.698Z,21.3
2024-02-29T02:38:34.404Z,21.3
2024-02-29T02:39:36.321Z,21.3
2024-02-29T02:40:38.400Z,21.3
2024-02-29T02:41:40.371Z,21.3
2024-02-29T02:42:42.177Z,21.2
2024-02-29T02:43:44.058Z,21.2
2024-02-29T02:44:45.821Z,21.2
2024-02-29T02:45:47.641Z,21.2
2024-02-29T02:46:49.482Z,21.2
2024-02-29T02:47:51.336Z,21.2
2024-02-29T02:48:53.376Z,21.2
2024-02-29T02:49:55.400Z,21.2
2024-02-29T02:50:57.381Z,21.2
2024-02-29T02:51:59.247Z,21.2
2024-02-29T02:53:01.082Z,21.3
2024-02-29T02:54:02.865Z,21.3
2024-02-29T02:55:04.704Z,21.2
2024-02-29T02:56:07.145Z,21.2
2024-02-29T02:57:08.960Z,21.2
2024-02-29T02:58:10.986Z,21.2
2024-02-29T02:59:13.069Z,21.2
2024-02-29T03:00:14.866Z,21.2
2024-02-29T03:01:16.812Z,21.2
2024-02-29T03:02:18.912Z,21.2
2024-02-29T03:03:20.893Z,21.2
2024-02-29T03:04:22.649Z,21.2
2024-02-29T03:05:24.646Z,21.2
2024-02-29T03:06:26.468Z,21.2
2024-02-29T03:07:28.261Z,21.2
2024-02-29T03:08:30.120Z,21.2
2024-02-29T03:09:32.487Z,21.2
2024-02-29T03:10:34.576Z,21.2
2024-02-29T03:11:36.809Z,21.2
2024-02-29T03:12:38.656Z,21.2
2024-02-29T03:13:40.829Z,21.2
2024-02-29T03:14:42.598Z,21.2
2024-02-29T03:15:44.529Z,21.2
2024-02-29T03:16:46.483Z,21.2
2024-02-29T03:17:48.431Z,21.2
2024-02-29T03:18:50.604Z,21.2
2024-02-29T03:19:52.635Z,21.2
2024-02-29T03:20:54.390Z,21.2
2024-02-29T03:21:56.383Z,21.2
2024-02-29T03:22:58.383Z,21.2
2024-02-29T03:24:00.257Z,21.3
2024-02-29T03:25:02.240Z,21.2
2024-02-29T03:26:04.272Z,21.2
2024-02-29T03:27:06.105Z,21.2
2024-02-29T03:28:08.121Z,21.2
2024-02-29T03:29:10.331Z,21.2
2024-02-29T03:30:12.182Z,21.2
2024-02-29T03:31:14.186Z,21.2
2024-02-29T03:32:16.377Z,21.2
2024-02-29T03:33:18.121Z,21.2
2024-02-29T03:34:19.970Z,21.2
2024-02-29T03:35:22.163Z,21.2
2024-02-29T03:36:23.942Z,21.2
2024-02-29T03:37:25.764Z,21.2
2024-02-29T03:38:27.525Z,21.2
2024-02-29T03:39:29.463Z,21.2
2024-02-29T03:40:31.217Z,21.2
2024-02-29T03:41:33.047Z,21.2
2024-02-29T03:42:35.010Z,21.2
2024-02-29T03:43:36.850Z,21.2
2024-02-29T03:44:38.613Z,21.2
2024-02-29T03:45:40.636Z,21.2
2024-02-29T03:46:42.683Z,21.2
2024-02-29T03:47:44.642Z,21.2
2024-02-29T03:48:46.585Z,21.1
2024-02-29T03:49:48.548Z,21.2
2024-02-29T03:50:50.394Z,21.2
2024-02-29T03:51:52.394Z,21.2
2024-02-29T03:52:54.486Z,21.2
2024-02-29T03:53:56.309Z,21.2
2024-02-29T03:54:58.428Z,21.2
2024-02-29T03:56:00.375Z,21.2
2024-02-29T03:57:02.091Z,21.2
2024-02-29T03:58:04.148Z,21.2
2024-02-29T03:59:06.112Z,21.2
2024-02-29T04:00:07.842Z,21.2
2024-02-29T04:01:10.102Z,21.2
2024-02-29T04:02:12.181Z,21.1
2024-02-29T04:03:14.058Z,21.1
2024-02-29T04:04:15.838Z,21.1
2024-02-29T04:05:17.939Z,21.1
2024-02-29T04:06:19.719Z,21.2
2024-02-29T04:07:21.521Z,21.2
2024-02-29T04:08:23.359Z,21.1
2024-02-29T04:09:25.092Z,21.1
2024-02-29T04:10:26.974Z,21.1
2024-02-29T04:11:28.774Z,21.2
2024-02-29T04:12:30.703Z,21.2
2024-02-29T04:13:32.721Z,21.3
2024-02-29T04:14:34.477Z,21.4
2024-02-29T04:15:36.320Z,21.4
2024-02-29T04:16:38.482Z,21.4
2024-02-29T04:17:40.402Z,21.5
2024-02-29T04:18:42.590Z,21.5
2024-02-29T04:19:44.639Z,21.6
2024-02-29T04:20:46.412Z,21.6
2024-02-29T04:21:48.443Z,21.6
2024-02-29T04:22:50.683Z,21.6
2024-02-29T04:23:52.437Z,21.6
2024-02-29T04:24:54.320Z,21.6
2024-02-29T04:25:56.240Z,21.7
2024-02-29T04:26:57.968Z,21.8
2024-02-29T04:28:00.057Z,21.8
2024-02-29T04:29:02.362Z,21.7
2024-02-29T04:30:04.700Z,21.7
2024-02-29T04:31:06.697Z,21.7
2024-02-29T04:32:08.809Z,21.7
2024-02-29T04:33:10.842Z,21.7
2024-02-29T04:34:12.897Z,21.7
2024-02-29T04:35:14.964Z,21.8
2024-02-29T04:36:16.764Z,21.8
2024-02-29T04:37:18.774Z,21.9
2024-02-29T04:38:21.052Z,21.9
2024-02-29T04:39:22.831Z,21.9
2024-02-29T04:40:24.718Z,21.8
2024-02-29T04:41:26.946Z,21.8
2024-02-29T04:42:28.796Z,21.8
2024-02-29T04:43:30.553Z,21.8
2024-02-29T04:44:32.380Z,21.8
2024-02-29T04:45:34.268Z,21.8
2024-02-29T04:46:36.317Z,21.8
2024-02-29T04:47:38.214Z,21.8
2024-02-29T04:48:40.125Z,21.8
2024-02-29T04:49:42.114Z,21.8
2024-02-29T04:50:43.944Z,21.8
2024-02-29T04:51:45.800Z,21.8
2024-02-29T04:52:47.869Z,21.8
2024-02-29T04:53:49.571Z,21.8
2024-02-29T04:54:51.365Z,21.8
2024-02-29T04:55:53.196Z,21.9
2024-02-29T04:56:55.035Z,21.9
2024-02-29T04:57:56.892Z,22
2024-02-29T04:58:58.856Z,22
2024-02-29T05:00:01.119Z,23.6
2024-02-29T05:01:03.431Z,22.5
2024-02-29T05:02:07.927Z,22.3
2024-02-29T05:03:10.251Z,22.3
2024-02-29T05:04:12.279Z,22.5
2024-02-29T05:05:14.467Z,22.3
2024-02-29T05:06:16.671Z,22.3
2024-02-29T05:07:18.527Z,22.3
2024-02-29T05:08:20.872Z,22.4
2024-02-29T05:09:22.593Z,22.4
2024-02-29T05:10:24.418Z,22.4
2024-02-29T05:11:26.281Z,22.4
2024-02-29T05:12:28.142Z,22.4
2024-02-29T05:13:29.929Z,22.4
2024-02-29T05:14:31.624Z,22.3
2024-02-29T05:15:33.653Z,22.2
2024-02-29T05:16:35.606Z,22.3
2024-02-29T05:17:37.435Z,22.3
2024-02-29T05:18:39.530Z,22.3
2024-02-29T05:19:41.347Z,22.3
2024-02-29T05:20:43.102Z,22.3
2024-02-29T05:21:44.957Z,22.5
2024-02-29T05:22:47.021Z,22.5
2024-02-29T05:23:48.804Z,22.6
2024-02-29T05:24:50.842Z,22.7
2024-02-29T05:25:52.885Z,22.8
2024-02-29T05:26:54.634Z,22.8
2024-02-29T05:27:56.428Z,22.8
2024-02-29T05:28:58.473Z,22.8
2024-02-29T05:30:00.309Z,22.9
2024-02-29T05:31:02.333Z,22.9
2024-02-29T05:32:04.609Z,23
2024-02-29T05:33:06.784Z,22.9
2024-02-29T05:34:09.041Z,22.8
2024-02-29T05:35:11.131Z,22.8
2024-02-29T05:36:12.902Z,22.8
2024-02-29T05:37:15.002Z,22.7
2024-02-29T05:38:17.240Z,22.7
2024-02-29T05:39:18.976Z,22.7
2024-02-29T05:40:20.928Z,22.7
2024-02-29T05:41:23.204Z,22.7
2024-02-29T05:42:25.033Z,22.6
2024-02-29T05:43:26.828Z,22.6
2024-02-29T05:44:28.849Z,22.6
2024-02-29T05:45:30.663Z,22.6
2024-02-29T05:46:32.710Z,22.6
2024-02-29T05:47:34.555Z,22.5
2024-02-29T05:48:36.941Z,22.5
2024-02-29T05:49:38.923Z,22.5
2024-02-29T05:50:40.780Z,22.5
2024-02-29T05:51:42.594Z,22.5
2024-02-29T05:52:44.472Z,22.5
2024-02-29T05:53:46.228Z,22.5
2024-02-29T05:54:48.060Z,22.4
2024-02-29T05:55:50.061Z,22.4
2024-02-29T05:56:51.906Z,22.4
2024-02-29T05:57:53.838Z,22.4
2024-02-29T05:58:55.715Z,22.5
2024-02-29T05:59:57.821Z,22.5
2024-02-29T06:01:00.005Z,22.4
2024-02-29T06:02:03.147Z,22.5
2024-02-29T06:03:05.511Z,22.4
2024-02-29T06:04:07.343Z,22.4
2024-02-29T06:05:09.512Z,22.5
2024-02-29T06:06:11.565Z,22.4
2024-02-29T06:07:13.781Z,22.5
2024-02-29T06:08:17.660Z,22.5
2024-02-29T06:09:19.496Z,22.5
2024-02-29T06:10:21.505Z,22.4
2024-02-29T06:11:23.645Z,22.2
2024-02-29T06:12:25.715Z,22.4
2024-02-29T06:13:27.542Z,22.5
2024-02-29T06:14:29.267Z,22.5
2024-02-29T06:15:31.040Z,22.5
2024-02-29T06:16:32.759Z,22.6
2024-02-29T06:17:34.881Z,22.6
2024-02-29T06:18:37.002Z,22.7
2024-02-29T06:19:39.018Z,22.8
2024-02-29T06:20:40.814Z,22.8
2024-02-29T06:21:42.676Z,22.9
2024-02-29T06:22:44.956Z,22.8
2024-02-29T06:23:46.739Z,22.7
2024-02-29T06:24:48.716Z,22.6
2024-02-29T06:25:50.572Z,22.7
2024-02-29T06:26:52.595Z,22.7
2024-02-29T06:27:54.402Z,22.7
2024-02-29T06:28:56.449Z,23
2024-02-29T06:29:58.276Z,23.6
2024-02-29T06:31:00.343Z,23.1
2024-02-29T06:32:02.664Z,23.1
2024-02-29T06:33:04.883Z,23.2
2024-02-29T06:34:07.159Z,23
2024-02-29T06:35:09.269Z,23
2024-02-29T06:36:11.081Z,23
2024-02-29T06:37:13.404Z,23
2024-02-29T06:38:15.805Z,22.9
2024-02-29T06:39:17.566Z,23
2024-02-29T06:40:19.544Z,23
2024-02-29T06:41:21.443Z,23
2024-02-29T06:42:23.185Z,23
2024-02-29T06:43:25.081Z,23.1
2024-02-29T06:44:26.875Z,23.2
2024-02-29T06:45:28.679Z,23.2
2024-02-29T06:46:30.401Z,23
2024-02-29T06:47:32.200Z,22.8
2024-02-29T06:48:34.593Z,22.9
2024-02-29T06:49:37.171Z,22.9
2024-02-29T06:50:38.946Z,22.9
2024-02-29T06:51:40.911Z,22.8
2024-02-29T06:52:43.032Z,22.9
2024-02-29T06:53:44.789Z,22.8
2024-02-29T06:54:46.718Z,22.7
2024-02-29T06:55:48.601Z,22.9
2024-02-29T06:56:50.570Z,22.9
2024-02-29T06:57:53.214Z,22.8
2024-02-29T06:58:55.232Z,22.9
2024-02-29T06:59:56.968Z,22.8
2024-02-29T07:00:59.112Z,22.7
2024-02-29T07:02:01.500Z,22.8
2024-02-29T07:03:03.921Z,22.9
2024-02-29T07:04:06.097Z,22.9
2024-02-29T07:05:08.226Z,22.8
2024-02-29T07:06:10.235Z,22.7
2024-02-29T07:07:12.242Z,22.9
2024-02-29T07:08:14.728Z,22.8
2024-02-29T07:09:16.490Z,22.7
2024-02-29T07:10:18.415Z,22.6
2024-02-29T07:11:20.506Z,22.7
2024-02-29T07:12:22.491Z,22.7
2024-02-29T07:13:24.608Z,22.8
2024-02-29T07:14:26.515Z,22.9
2024-02-29T07:15:28.358Z,22.7
2024-02-29T07:16:30.151Z,22.8
2024-02-29T07:17:31.976Z,22.8
2024-02-29T07:18:33.981Z,22.8
2024-02-29T07:19:36.297Z,22.8
2024-02-29T07:20:38.074Z,22.7
2024-02-29T07:21:39.864Z,22.7
2024-02-29T07:22:41.977Z,22.7
2024-02-29T07:23:43.765Z,22.7
2024-02-29T07:24:45.612Z,22.6
2024-02-29T07:25:47.407Z,22.6
2024-02-29T07:26:49.132Z,22.6
2024-02-29T07:27:51.096Z,22.6
2024-02-29T07:28:53.187Z,22.6
2024-02-29T07:29:54.961Z,22.6
2024-02-29T07:30:56.737Z,22.6
2024-02-29T07:31:58.851Z,22.6
2024-02-29T07:33:00.854Z,22.8
2024-02-29T07:34:02.960Z,22.7
2024-02-29T07:35:05.175Z,22.6
2024-02-29T07:36:07.022Z,22.6
2024-02-29T07:37:08.987Z,22.6
2024-02-29T07:38:11.164Z,22.8
2024-02-29T07:39:12.987Z,22.8
2024-02-29T07:40:15.061Z,22.8
2024-02-29T07:41:17.066Z,22.8
2024-02-29T07:42:18.942Z,22.7
2024-02-29T07:43:20.942Z,22.7
2024-02-29T07:44:23.217Z,22.6
2024-02-29T07:45:24.973Z,22.6
2024-02-29T07:46:26.966Z,22.5
2024-02-29T07:47:28.914Z,22.6
2024-02-29T07:48:30.783Z,22.6
2024-02-29T07:49:32.703Z,22.7
2024-02-29T07:50:34.563Z,22.8
2024-02-29T07:51:36.606Z,22.8
2024-02-29T07:52:38.652Z,22.8
2024-02-29T07:53:40.397Z,22.9
2024-02-29T07:54:42.229Z,22.8
2024-02-29T07:55:44.129Z,22.7
2024-02-29T07:56:45.902Z,22.8
2024-02-29T07:57:47.954Z,22.9
2024-02-29T07:58:50.055Z,22.8
2024-02-29T07:59:51.781Z,22.9
2024-02-29T08:00:53.786Z,22.8
2024-02-29T08:02:58.480Z,22.7
2024-02-29T08:04:00.533Z,22.7
2024-02-29T08:05:02.559Z,22.7
2024-02-29T08:06:04.862Z,22.7
2024-02-29T08:07:06.934Z,22.7
2024-02-29T08:08:08.931Z,22.7
2024-02-29T08:09:11.269Z,22.8
2024-02-29T08:10:13.260Z,22.8
2024-02-29T08:11:15.678Z,22.8
2024-02-29T08:12:17.551Z,22.7
2024-02-29T08:13:19.560Z,22.8
2024-02-29T08:14:21.767Z,22.7
2024-02-29T08:15:23.542Z,22.7
2024-02-29T08:16:25.501Z,23
2024-02-29T08:17:27.412Z,22.9
2024-02-29T08:18:29.486Z,22.8
2024-02-29T08:19:31.284Z,22.8
2024-02-29T08:20:33.043Z,22.6
2024-02-29T08:21:39.292Z,22.6
2024-02-29T08:22:43.089Z,22.6
2024-02-29T08:23:44.900Z,22.6
2024-02-29T08:24:46.694Z,22.6
2024-02-29T08:25:48.489Z,22.6
2024-02-29T08:26:50.350Z,22.6
2024-02-29T08:27:52.214Z,22.6
2024-02-29T08:28:54.145Z,22.6
2024-02-29T08:29:55.888Z,22.6
2024-02-29T08:30:57.787Z,22.6
2024-02-29T08:31:59.878Z,22.6
2024-02-29T08:33:02.250Z,22.7
2024-02-29T08:34:04.472Z,22.8
2024-02-29T08:35:06.716Z,22.8
2024-02-29T08:36:08.475Z,22.8
2024-02-29T08:37:10.540Z,22.8
2024-02-29T08:38:12.770Z,22.7
2024-02-29T08:39:14.585Z,22.7
2024-02-29T08:40:16.462Z,22.7
2024-02-29T08:41:18.500Z,22.7
2024-02-29T08:42:20.285Z,22.7
2024-02-29T08:43:22.078Z,22.8
2024-02-29T08:44:24.148Z,22.7
2024-02-29T08:45:26.292Z,22.8
2024-02-29T08:46:28.353Z,22.8
2024-02-29T08:47:30.351Z,22.9
2024-02-29T08:48:32.272Z,22.9
2024-02-29T08:49:34.192Z,22.9
2024-02-29T08:50:36.211Z,22.9
2024-02-29T08:51:38.067Z,22.8
2024-02-29T08:52:39.968Z,22.8
2024-02-29T08:53:41.735Z,22.9
2024-02-29T08:54:43.544Z,22.9
2024-02-29T08:55:45.422Z,22.9
2024-02-29T08:56:47.233Z,22.9
2024-02-29T08:57:49.069Z,23
2024-02-29T08:58:50.947Z,22.9
2024-02-29T08:59:52.721Z,22.9
2024-02-29T09:00:54.731Z,22.9
2024-02-29T09:01:57.012Z,22.9
2024-02-29T09:02:59.399Z,22.9
2024-02-29T09:04:01.388Z,22.9
2024-02-29T09:05:03.414Z,22.9
2024-02-29T09:06:05.518Z,22.9
2024-02-29T09:07:07.453Z,22.9
2024-02-29T09:08:09.488Z,22.9
2024-02-29T09:09:11.264Z,22.8
2024-02-29T09:10:13.262Z,22.8
2024-02-29T09:11:15.903Z,22.8
2024-02-29T09:12:17.756Z,22.8
2024-02-29T09:13:35.181Z,23.1
2024-02-29T09:14:38.284Z,23.2
2024-02-29T09:15:40.075Z,23.3
2024-02-29T09:16:41.914Z,23.1
2024-02-29T09:17:43.835Z,23.3
2024-02-29T09:18:46.014Z,23.2
2024-02-29T09:19:47.852Z,23.1
2024-02-29T09:20:49.644Z,23.1
2024-02-29T09:21:51.571Z,23.2
2024-02-29T09:22:53.528Z,23.3
2024-02-29T09:23:55.485Z,23.3
2024-02-29T09:24:57.409Z,23.3
2024-02-29T09:25:59.457Z,23.3
2024-02-29T09:27:01.422Z,23.3
2024-02-29T09:28:03.431Z,23.3
2024-02-29T09:29:05.716Z,23.4
2024-02-29T09:30:07.586Z,23.5
2024-02-29T09:31:09.625Z,23.5
2024-02-29T09:32:11.594Z,23.6
2024-02-29T09:33:13.625Z,23.6
2024-02-29T09:34:15.823Z,23.6
2024-02-29T09:35:17.617Z,23.6
2024-02-29T09:36:19.422Z,23.6
2024-02-29T09:37:21.467Z,23.6
2024-02-29T09:38:23.702Z,23.6
2024-02-29T09:39:25.675Z,23.6
2024-02-29T09:40:41.691Z,23.7
2024-02-29T09:42:15.058Z,23.5
2024-02-29T09:43:18.562Z,23.5
2024-02-29T09:44:20.914Z,23.4
2024-02-29T09:45:25.813Z,23.4
2024-02-29T09:46:27.819Z,23.4
2024-02-29T09:47:29.791Z,23.4
2024-02-29T09:48:32.087Z,23.5
2024-02-29T09:49:34.027Z,23.5
2024-02-29T09:50:35.791Z,23.5
2024-02-29T09:51:37.615Z,23.5
2024-02-29T09:52:39.484Z,23.5
2024-02-29T09:53:41.428Z,23.5
2024-02-29T09:54:43.549Z,23.5
2024-02-29T09:55:45.658Z,23.5
2024-02-29T09:56:48.058Z,23.4
2024-02-29T09:57:50.501Z,23.5
2024-02-29T09:58:52.375Z,23.5
2024-02-29T09:59:54.335Z,23.4
2024-02-29T10:00:56.189Z,23.4
2024-02-29T10:01:58.902Z,23.3
2024-02-29T10:03:01.372Z,23.5
2024-02-29T10:04:03.305Z,23.5
2024-02-29T10:05:05.308Z,23.6
2024-02-29T10:06:07.228Z,23.6
2024-02-29T10:07:09.082Z,23.6
2024-02-29T10:08:11.047Z,23.6
2024-02-29T10:09:12.772Z,23.6
2024-02-29T10:10:14.960Z,23.6
2024-02-29T10:11:17.381Z,23.6
2024-02-29T10:12:19.929Z,23.6
2024-02-29T10:13:22.342Z,23.5
2024-02-29T10:14:24.608Z,23.4
2024-02-29T10:15:26.625Z,23.4
2024-02-29T10:16:29.733Z,23.3
2024-02-29T10:17:31.868Z,23.4
2024-02-29T10:18:33.718Z,23.3
2024-02-29T10:19:35.516Z,23.3
2024-02-29T10:20:37.305Z,23.2
2024-02-29T10:21:39.117Z,23.1
2024-02-29T10:22:43.855Z,23
2024-02-29T10:23:46.715Z,23
2024-02-29T10:24:48.720Z,23
2024-02-29T10:25:50.716Z,23
2024-02-29T10:26:52.606Z,23
2024-02-29T10:27:54.453Z,23
2024-02-29T10:28:56.271Z,23.1
2024-02-29T10:29:58.279Z,23.1
2024-02-29T10:31:00.321Z,23
2024-02-29T10:32:02.229Z,23
2024-02-29T10:33:04.018Z,23
2024-02-29T10:34:05.941Z,23.1
2024-02-29T10:35:07.838Z,23.1
2024-02-29T10:36:09.768Z,23.3
2024-02-29T10:37:11.649Z,23.1
2024-02-29T10:38:13.582Z,23
2024-02-29T10:39:15.378Z,23.3
2024-02-29T10:40:17.355Z,22.9
2024-02-29T10:41:19.729Z,22.8
2024-02-29T10:42:21.596Z,22.6
2024-02-29T10:43:23.616Z,22.7
2024-02-29T10:44:25.696Z,22.8
2024-02-29T10:45:28.299Z,22.8
2024-02-29T10:46:30.197Z,22.9
2024-02-29T10:47:32.029Z,22.8
2024-02-29T10:48:33.843Z,22.7
2024-02-29T10:49:35.660Z,22.7
2024-02-29T10:50:37.420Z,22.8
2024-02-29T10:51:39.242Z,22.6
2024-02-29T10:52:41.203Z,22.6
2024-02-29T10:53:43.002Z,22.9
2024-02-29T10:54:44.778Z,22.6
2024-02-29T10:55:46.655Z,22.6
2024-02-29T10:56:48.500Z,22.7
2024-02-29T10:57:50.545Z,22.8
2024-02-29T10:58:52.339Z,22.8
2024-02-29T10:59:54.160Z,22.8
2024-02-29T11:00:56.174Z,22.9
2024-02-29T11:01:58.780Z,22.8
2024-02-29T11:03:01.439Z,22.7
2024-02-29T11:04:03.292Z,22.8
2024-02-29T11:05:05.191Z,22.8
2024-02-29T11:06:07.029Z,22.7
2024-02-29T11:07:08.887Z,22.8
2024-02-29T11:08:10.879Z,22.7
2024-02-29T11:09:12.675Z,22.7
2024-02-29T11:10:14.578Z,22.6
2024-02-29T11:11:16.694Z,22.7
2024-02-29T11:12:19.484Z,22.7
2024-02-29T11:13:21.580Z,22.8
2024-02-29T11:14:23.934Z,22.7
2024-02-29T11:15:27.512Z,22.8
2024-02-29T11:16:30.081Z,22.6
2024-02-29T11:17:32.553Z,22.6
2024-02-29T11:18:34.655Z,22.7
2024-02-29T11:19:52.062Z,22.7
2024-02-29T11:20:59.620Z,22.8
2024-02-29T11:22:01.592Z,22.8
2024-02-29T11:23:11.481Z,22.7
2024-02-29T11:24:13.745Z,22.7
2024-02-29T11:25:15.650Z,22.5
2024-02-29T11:26:17.828Z,22.8
2024-02-29T11:27:19.650Z,22.8
2024-02-29T11:28:21.735Z,22.9
2024-02-29T11:29:23.871Z,22.9
2024-02-29T11:30:26.119Z,22.9
2024-02-29T11:31:28.285Z,22.8
2024-02-29T11:32:30.257Z,23
2024-02-29T11:33:32.395Z,23
2024-02-29T11:34:34.696Z,23
2024-02-29T11:35:36.791Z,23
2024-02-29T11:36:38.673Z,22.8
2024-02-29T11:37:41.033Z,22.9
2024-02-29T11:38:43.104Z,22.7
2024-02-29T11:39:45.019Z,22.8
2024-02-29T11:40:46.882Z,22.8
2024-02-29T11:41:48.706Z,22.7
2024-02-29T11:42:50.569Z,22.6
2024-02-29T11:43:52.496Z,22.6
2024-02-29T11:44:54.432Z,22.8
2024-02-29T11:45:56.213Z,22.6
2024-02-29T11:46:58.166Z,22.7
2024-02-29T11:48:00.064Z,23
2024-02-29T11:49:02.208Z,23
2024-02-29T11:50:04.236Z,23.1
2024-02-29T11:51:06.066Z,22.8
2024-02-29T11:52:07.992Z,22.9
2024-02-29T11:53:09.896Z,23.1
2024-02-29T11:54:11.680Z,22.9
2024-02-29T11:55:13.677Z,22.7
2024-02-29T11:56:17.351Z,22.8
2024-02-29T11:57:19.556Z,22.9
2024-02-29T11:58:21.721Z,22.6
2024-02-29T11:59:23.977Z,22.6
2024-02-29T12:00:26.104Z,22.5
2024-02-29T12:01:28.166Z,22.7
2024-02-29T12:02:30.253Z,22.4
2024-02-29T12:03:32.006Z,22.4
2024-02-29T12:04:34.150Z,22.4
2024-02-29T12:05:36.487Z,22.4
2024-02-29T12:06:38.736Z,22.5
2024-02-29T12:07:40.749Z,22.5
2024-02-29T12:08:42.524Z,22.5
2024-02-29T12:09:44.471Z,22.5
2024-02-29T12:10:49.573Z,22.6
2024-02-29T12:11:51.370Z,22.6
2024-02-29T12:12:53.230Z,22.4
2024-02-29T12:13:55.250Z,22.4
2024-02-29T12:14:57.161Z,22.3
2024-02-29T12:15:59.130Z,22.3
2024-02-29T12:17:01.069Z,22.3
2024-02-29T12:18:03.110Z,22.4
2024-02-29T12:19:05.333Z,22.4
2024-02-29T12:20:07.390Z,22.4
2024-02-29T12:21:09.194Z,22.5
2024-02-29T12:22:10.937Z,22.6
2024-02-29T12:23:13.075Z,22.4
2024-02-29T12:24:14.860Z,22.4
2024-02-29T12:25:16.839Z,22.4
2024-02-29T12:26:18.784Z,22.3
2024-02-29T12:27:20.583Z,22.3
2024-02-29T12:28:22.559Z,22.4
2024-02-29T12:29:24.578Z,22.3
2024-02-29T12:30:26.742Z,22.3
2024-02-29T12:31:28.705Z,22.2
2024-02-29T12:32:30.602Z,22.1
2024-02-29T12:33:32.643Z,22.1
2024-02-29T12:34:35.421Z,22
2024-02-29T12:35:37.559Z,22
2024-02-29T12:36:39.562Z,21.8
2024-02-29T12:37:41.537Z,21.8
2024-02-29T12:38:43.339Z,21.9
2024-02-29T12:39:47.527Z,21.9
2024-02-29T12:40:49.428Z,21.9
2024-02-29T12:41:51.252Z,22
2024-02-29T12:42:53.133Z,22
2024-02-29T12:43:54.982Z,22
2024-02-29T12:44:56.789Z,22
2024-02-29T12:45:59.029Z,21.9
2024-02-29T12:47:01.280Z,21.9
2024-02-29T12:48:03.206Z,21.9
2024-02-29T12:49:05.481Z,21.8
2024-02-29T12:50:07.583Z,21.8
2024-02-29T12:51:09.373Z,21.8
2024-02-29T12:52:11.178Z,21.8
2024-02-29T12:53:13.198Z,21.9
2024-02-29T12:54:14.975Z,21.9
2024-02-29T12:55:16.931Z,21.9
2024-02-29T12:56:19.125Z,22
2024-02-29T12:57:20.986Z,22
2024-02-29T12:58:23.098Z,22
2024-02-29T12:59:25.387Z,22.1
2024-02-29T13:00:27.171Z,21.9
2024-02-29T13:01:29.555Z,21.9
2024-02-29T13:02:31.873Z,21.9
2024-02-29T13:03:33.707Z,21.9
2024-02-29T13:04:35.918Z,21.9
2024-02-29T13:05:38.633Z,21.8
2024-02-29T13:06:40.728Z,21.9
2024-02-29T13:07:42.812Z,21.8
2024-02-29T13:08:44.624Z,21.8
2024-02-29T13:09:46.547Z,21.8
2024-02-29T13:10:48.498Z,21.8
2024-02-29T13:11:50.656Z,21.8
2024-02-29T13:13:03.669Z,21.9
2024-02-29T13:14:13.045Z,21.8
2024-02-29T13:15:14.883Z,21.8
2024-02-29T13:16:16.809Z,21.8
2024-02-29T13:17:18.985Z,21.8
2024-02-29T13:18:21.112Z,21.8
2024-02-29T13:19:23.011Z,21.7
2024-02-29T13:20:25.020Z,21.7
2024-02-29T13:21:26.785Z,21.8
2024-02-29T13:22:28.770Z,21.7
2024-02-29T13:23:30.908Z,21.8
2024-02-29T13:24:32.738Z,21.8
2024-02-29T13:25:34.839Z,21.7
2024-02-29T13:26:37.119Z,21.7
2024-02-29T13:27:38.932Z,21.8
2024-02-29T13:28:40.946Z,21.7
2024-02-29T13:29:42.833Z,21.8
2024-02-29T13:30:44.812Z,21.8
2024-02-29T13:31:46.814Z,21.7
2024-02-29T13:32:49.087Z,21.8
2024-02-29T13:33:51.369Z,22
2024-02-29T13:34:53.381Z,22.1
2024-02-29T13:35:55.209Z,21.9
2024-02-29T13:36:57.104Z,21.9
2024-02-29T13:37:59.206Z,21.8
2024-02-29T13:39:00.955Z,21.8
2024-02-29T13:40:02.967Z,21.8
2024-02-29T13:41:04.966Z,21.8
2024-02-29T13:42:06.819Z,21.9
2024-02-29T13:43:08.807Z,21.8
2024-02-29T13:44:10.920Z,21.8
2024-02-29T13:45:12.733Z,21.8
2024-02-29T13:46:14.736Z,21.8
2024-02-29T13:47:16.912Z,21.8
2024-02-29T13:48:19.182Z,21.8
2024-02-29T13:49:23.484Z,21.8
2024-02-29T13:50:25.670Z,21.7
2024-02-29T13:51:27.501Z,21.7
2024-02-29T13:52:29.389Z,21.7